McEntire Air National Guard, South Carolina
Current Conditions -  °F | °C
As of 11:58 AM on Friday 28 Nov 2014 (Local Time) from KMMT Reporting Station
Clear Clear  
Wind Chill: 39°   Ceiling: Unl
Heat Index: 44°   Visibility: 10mi
Dew Point: 19°   Wind: 8mph
Humidity: 37%   Direction: 360°N
Pressure: 30.38"   Gusts: NA
Location:  33.9203°N, 80.6788°W
Report Text: KMMT 281658Z AUTO 36007KT 10SM CLR 07/M07 A3038 RMK AO2 SLP292 T00661071
Loading
Personal Weather Stations






























Interactive Weather Map New forecast layout! Learn more

10-Day Weather Forecast

Advertisements
Track Severe Weather on mobile